KAHN/AHN METAR and TAF weather

Enter ICAO airport designator
Station Type Date Time Source
KAHN METAR 2020/07/10 15:51 UTC NOAA

KAHN 101551Z VRB03KT 10SM CLR 33/22 A2996 RMK AO2 SLP136 T03280222


Station Type Date Time Source
KAHN Decoded METAR 2020/07/10 15:51 UTC NOAA

ATHENS BEN EPPS AIRPORT, GA, United States (KAHN) 33-57N 083-20W 244M
Jul 10, 2020 - 11:51 AM EDT / 2020.07.10 1551 UTC
Wind: Variable at 3 MPH (3 KT):0
Visibility: 10 mile(s):0
Sky conditions: clear
Temperature: 91.0 F (32.8 C)
Heat index: 98.1 F (36.7 C):1
Dew Point: 72.0 F (22.2 C)
Relative Humidity: 53%
Pressure (altimeter): 29.96 in. Hg (1014 hPa)
ob: KAHN 101551Z VRB03KT 10SM CLR 33/22 A2996 RMK AO2 SLP136 T03280222
cycle: 16

Station Type Date Time Source
KAHN TAF 2020/07/10 12:30 UTC NOAA

TAF KAHN 101127Z 1012/1112 30003KT P6SM SCT060
FM101700 27004KT P6SM FEW050
FM110000 27005KT P6SM SCT050
FM110200 28004KT P6SM FEW250

Example: see airport list